createdAt,value
2014-07-14T00:00:04.750Z,2
2014-07-14T00:00:22.969Z,2
2014-07-14T00:00:41.188Z,2
2014-07-14T00:00:58.922Z,2
2014-07-14T00:01:15.909Z,1
2014-07-14T00:01:34.127Z,1
2014-07-14T00:01:51.112Z,2
2014-07-14T00:02:09.473Z,1
2014-07-14T00:02:27.192Z,2
2014-07-14T00:02:45.426Z,2
2014-07-14T00:03:03.020Z,1
2014-07-14T00:03:21.256Z,2
2014-07-14T00:03:38.225Z,2
2014-07-14T00:03:56.459Z,2
2014-07-14T00:04:14.071Z,1
2014-07-14T00:04:31.665Z,2
2014-07-14T00:04:49.899Z,2
2014-07-14T00:05:08.120Z,1
2014-07-14T00:05:25.729Z,2
2014-07-14T00:05:43.323Z,2
2014-07-14T00:06:01.073Z,1
2014-07-14T00:06:18.684Z,1
2014-07-14T00:06:36.278Z,2
2014-07-14T00:06:54.028Z,1
2014-07-14T00:07:12.249Z,2
2014-07-14T00:07:30.483Z,2
2014-07-14T00:07:48.092Z,1
2014-07-14T00:08:05.061Z,2
2014-07-14T00:08:23.423Z,1
2014-07-14T00:08:41.641Z,1
2014-07-14T00:08:59.251Z,1
2014-07-14T00:09:16.844Z,1
2014-07-14T00:09:35.065Z,1
2014-07-14T00:09:53.440Z,1
2014-07-14T00:10:11.659Z,2
2014-07-14T00:10:29.895Z,2
2014-07-14T00:10:48.130Z,2
2014-07-14T00:11:06.348Z,1
2014-07-14T00:11:23.960Z,2
2014-07-14T00:11:41.554Z,2
2014-07-14T00:11:58.522Z,1
2014-07-14T00:12:16.132Z,2
2014-07-14T00:12:33.727Z,2
2014-07-14T00:12:51.962Z,2
2014-07-14T00:13:10.196Z,2
2014-07-14T00:13:27.790Z,1
2014-07-14T00:13:45.386Z,2
2014-07-14T00:14:02.995Z,1
2014-07-14T00:14:20.589Z,1
2014-07-14T00:14:38.200Z,1
2014-07-14T00:14:54.544Z,1
2014-07-14T00:15:12.153Z,2
2014-07-14T00:15:29.747Z,2
2014-07-14T00:15:47.983Z,1
2014-07-14T00:16:06.202Z,1
2014-07-14T00:16:23.812Z,1
2014-07-14T00:16:41.405Z,2
2014-07-14T00:16:58.392Z,1
2014-07-14T00:17:15.985Z,2
2014-07-14T00:17:34.345Z,2
2014-07-14T00:17:51.956Z,2
2014-07-14T00:18:09.550Z,2
2014-07-14T00:18:27.159Z,1
2014-07-14T00:18:44.753Z,2
2014-07-14T00:19:02.365Z,2
2014-07-14T00:19:20.600Z,2
2014-07-14T00:19:38.194Z,2
2014-07-14T00:19:55.787Z,2
2014-07-14T00:20:13.523Z,2
2014-07-14T00:20:31.132Z,1
2014-07-14T00:20:48.726Z,2
2014-07-14T00:21:06.337Z,1
2014-07-14T00:21:24.556Z,2
2014-07-14T00:21:42.790Z,2
2014-07-14T00:22:00.384Z,2
2014-07-14T00:22:17.370Z,2
2014-07-14T00:22:35.589Z,2
2014-07-14T00:22:53.199Z,2
2014-07-14T00:23:10.794Z,2
2014-07-14T00:23:28.404Z,2
2014-07-14T00:23:46.138Z,2
2014-07-14T00:24:03.732Z,2
2014-07-14T00:24:21.344Z,2
2014-07-14T00:24:38.313Z,2
2014-07-14T00:24:55.907Z,2
2014-07-14T00:25:14.143Z,2
2014-07-14T00:25:31.127Z,2
2014-07-14T00:25:48.221Z,2
2014-07-14T00:26:06.456Z,2
2014-07-14T00:26:24.050Z,2
2014-07-14T00:26:41.660Z,2
2014-07-14T00:26:59.910Z,2
2014-07-14T00:27:16.865Z,1
2014-07-14T00:27:35.084Z,1
2014-07-14T00:27:53.443Z,2
2014-07-14T00:28:11.052Z,2
2014-07-14T00:28:29.290Z,1
2014-07-14T00:28:47.508Z,2
2014-07-14T00:29:03.852Z,1
2014-07-14T00:29:21.448Z,2
2014-07-14T00:29:39.057Z,1
2014-07-14T00:29:57.292Z,2
2014-07-14T00:30:14.901Z,2
2014-07-14T00:30:33.136Z,1
2014-07-14T00:30:50.230Z,2
2014-07-14T00:31:08.465Z,1
2014-07-14T00:31:26.060Z,1
2014-07-14T00:31:43.654Z,2
2014-07-14T00:32:01.888Z,2
2014-07-14T00:32:19.482Z,2
2014-07-14T00:32:37.719Z,2
2014-07-14T00:32:55.312Z,2
2014-07-14T00:33:13.547Z,1
2014-07-14T00:33:29.892Z,2
2014-07-14T00:33:47.502Z,1
2014-07-14T00:34:05.721Z,1
2014-07-14T00:34:23.955Z,1
2014-07-14T00:34:40.926Z,2
2014-07-14T00:34:59.144Z,2
2014-07-14T00:35:16.754Z,2
2014-07-14T00:35:34.350Z,2
2014-07-14T00:35:51.318Z,2
2014-07-14T00:36:08.428Z,2
2014-07-14T00:36:26.646Z,2
2014-07-14T00:36:44.883Z,2
2014-07-14T00:37:02.477Z,2
2014-07-14T00:37:19.461Z,2
2014-07-14T00:37:37.055Z,2
2014-07-14T00:37:54.666Z,2
2014-07-14T00:38:12.885Z,2
2014-07-14T00:38:30.479Z,1
2014-07-14T00:38:48.091Z,2
2014-07-14T00:39:06.310Z,2
2014-07-14T00:39:23.935Z,2
2014-07-14T00:39:42.153Z,2
2014-07-14T00:39:59.749Z,1
2014-07-14T00:40:17.984Z,2
2014-07-14T00:40:34.952Z,2
2014-07-14T00:40:52.563Z,2
2014-07-14T00:41:10.156Z,2
2014-07-14T00:41:27.125Z,2
2014-07-14T00:41:44.735Z,2
2014-07-14T00:42:01.705Z,2
2014-07-14T00:42:19.924Z,2
2014-07-14T00:42:37.533Z,2
2014-07-14T00:42:55.129Z,1
2014-07-14T00:43:13.364Z,1
2014-07-14T00:43:30.957Z,2
2014-07-14T00:43:48.551Z,2
2014-07-14T00:44:06.787Z,2
2014-07-14T00:44:25.006Z,2
2014-07-14T00:44:43.241Z,1
2014-07-14T00:45:01.603Z,2
2014-07-14T00:45:19.337Z,2
2014-07-14T00:45:37.572Z,2
2014-07-14T00:45:55.165Z,2
2014-07-14T00:46:12.776Z,2
2014-07-14T00:46:30.557Z,2
2014-07-14T00:46:48.151Z,1
2014-07-14T00:47:05.747Z,2
2014-07-14T00:47:23.981Z,2
2014-07-14T00:47:42.200Z,1
2014-07-14T00:48:00.467Z,2
2014-07-14T00:48:18.077Z,2
2014-07-14T00:48:36.295Z,2
2014-07-14T00:48:54.530Z,2
2014-07-14T00:49:12.126Z,2
2014-07-14T00:49:30.360Z,2
2014-07-14T00:49:48.579Z,1
2014-07-14T00:50:06.172Z,2
2014-07-14T00:50:23.784Z,2
2014-07-14T00:50:40.128Z,1
2014-07-14T00:50:57.721Z,2
2014-07-14T00:51:14.693Z,2
2014-07-14T00:51:32.927Z,2
2014-07-14T00:51:51.162Z,1
2014-07-14T00:52:08.131Z,2
2014-07-14T00:52:25.100Z,2
2014-07-14T00:52:43.319Z,1
2014-07-14T00:53:00.428Z,1
2014-07-14T00:53:18.024Z,2
2014-07-14T00:53:36.259Z,2
2014-07-14T00:53:53.993Z,2
2014-07-14T00:54:12.212Z,2
2014-07-14T00:54:29.824Z,2
2014-07-14T00:54:48.043Z,2
2014-07-14T00:55:06.277Z,2
2014-07-14T00:55:24.498Z,2
2014-07-14T00:55:41.467Z,2
2014-07-14T00:55:59.076Z,2
2014-07-14T00:56:16.685Z,2
2014-07-14T00:56:33.796Z,2
2014-07-14T00:56:52.015Z,2
2014-07-14T00:57:08.983Z,2
2014-07-14T00:57:26.718Z,2
2014-07-14T00:57:44.329Z,3
2014-07-14T00:58:02.688Z,1
2014-07-14T00:58:19.657Z,2
2014-07-14T00:58:37.895Z,1
2014-07-14T00:58:55.488Z,2
2014-07-14T00:59:13.098Z,1
2014-07-14T00:59:31.316Z,2
2014-07-14T00:59:48.287Z,2
2014-07-14T01:00:06.522Z,2
2014-07-14T01:00:23.490Z,2
2014-07-14T01:00:41.102Z,2
2014-07-14T01:00:58.695Z,2
2014-07-14T01:01:15.664Z,2
2014-07-14T01:01:33.258Z,2
2014-07-14T01:01:51.494Z,2
2014-07-14T01:02:09.104Z,2
2014-07-14T01:02:26.697Z,2
2014-07-14T01:02:44.291Z,2
2014-07-14T01:03:02.528Z,2
2014-07-14T01:03:19.496Z,2
2014-07-14T01:03:37.106Z,2
2014-07-14T01:03:55.325Z,2
2014-07-14T01:04:13.075Z,2
2014-07-14T01:04:31.294Z,2
2014-07-14T01:04:48.904Z,2
2014-07-14T01:05:07.124Z,2
2014-07-14T01:05:25.359Z,2
2014-07-14T01:05:42.968Z,2
2014-07-14T01:06:00.564Z,2
2014-07-14T01:06:18.158Z,2
2014-07-14T01:06:35.814Z,2
2014-07-14T01:06:53.408Z,2
2014-07-14T01:07:11.020Z,2
2014-07-14T01:07:29.270Z,2
2014-07-14T01:07:47.489Z,2
2014-07-14T01:08:05.100Z,2
2014-07-14T01:08:23.334Z,2
2014-07-14T01:08:40.928Z,2
2014-07-14T01:08:59.163Z,2
2014-07-14T01:09:16.757Z,2
2014-07-14T01:09:34.992Z,2
2014-07-14T01:09:52.601Z,2
2014-07-14T01:10:09.573Z,2
2014-07-14T01:10:27.167Z,2
2014-07-14T01:10:44.776Z,2
2014-07-14T01:11:02.370Z,2
2014-07-14T01:11:19.981Z,3
2014-07-14T01:11:37.575Z,2
2014-07-14T01:11:55.809Z,2
2014-07-14T01:12:14.028Z,2
2014-07-14T01:12:32.263Z,1
2014-07-14T01:12:50.498Z,2
2014-07-14T01:13:07.466Z,2
2014-07-14T01:13:24.437Z,2
2014-07-14T01:13:42.672Z,2
2014-07-14T01:14:01.031Z,1
2014-07-14T01:14:19.265Z,2
2014-07-14T01:14:37.503Z,2
2014-07-14T01:14:55.721Z,2
2014-07-14T01:15:12.706Z,1
2014-07-14T01:15:30.927Z,2
2014-07-14T01:15:48.520Z,1
2014-07-14T01:16:06.755Z,1
2014-07-14T01:16:24.348Z,2
2014-07-14T01:16:42.585Z,2
2014-07-14T01:17:00.194Z,2
2014-07-14T01:17:17.788Z,2
2014-07-14T01:17:36.008Z,1
2014-07-14T01:17:54.242Z,1
2014-07-14T01:18:12.476Z,2
2014-07-14T01:18:30.073Z,1
2014-07-14T01:18:48.308Z,2
2014-07-14T01:19:06.542Z,2
2014-07-14T01:19:24.761Z,2
2014-07-14T01:19:41.730Z,2
2014-07-14T01:19:59.965Z,2
2014-07-14T01:20:18.199Z,2
2014-07-14T01:20:35.171Z,2
2014-07-14T01:20:53.390Z,2
2014-07-14T01:21:10.999Z,1
2014-07-14T01:21:29.218Z,2
2014-07-14T01:21:46.814Z,2
2014-07-14T01:22:04.423Z,1
2014-07-14T01:22:22.657Z,2
2014-07-14T01:22:40.251Z,1
2014-07-14T01:22:57.987Z,2
2014-07-14T01:23:15.597Z,2
2014-07-14T01:23:33.956Z,2
2014-07-14T01:23:52.177Z,2
2014-07-14T01:24:10.411Z,1
2014-07-14T01:24:28.005Z,1
2014-07-14T01:24:44.989Z,2
2014-07-14T01:25:03.210Z,2
2014-07-14T01:25:21.445Z,2
2014-07-14T01:25:39.663Z,2
2014-07-14T01:25:57.275Z,2
2014-07-14T01:26:14.868Z,2
2014-07-14T01:26:33.103Z,2
2014-07-14T01:26:50.072Z,1
2014-07-14T01:27:07.666Z,1
2014-07-14T01:27:25.885Z,2
2014-07-14T01:27:43.494Z,2
2014-07-14T01:27:59.216Z,2
2014-07-14T01:28:17.435Z,1
2014-07-14T01:28:35.669Z,2
2014-07-14T01:28:53.263Z,1
2014-07-14T01:29:11.499Z,2
2014-07-14T01:29:29.093Z,2
2014-07-14T01:29:46.703Z,1
2014-07-14T01:30:04.939Z,1
2014-07-14T01:30:21.908Z,1
2014-07-14T01:30:39.501Z,2
2014-07-14T01:30:57.736Z,2
2014-07-14T01:31:15.332Z,1
2014-07-14T01:31:32.925Z,1
2014-07-14T01:31:49.285Z,2
2014-07-14T01:32:07.505Z,1
2014-07-14T01:32:24.490Z,2
2014-07-14T01:32:42.084Z,2
2014-07-14T01:33:00.318Z,2
2014-07-14T01:33:18.539Z,2
2014-07-14T01:33:36.773Z,2
2014-07-14T01:33:54.382Z,2
2014-07-14T01:34:11.977Z,2
2014-07-14T01:34:30.196Z,2
2014-07-14T01:34:48.430Z,2
2014-07-14T01:35:06.040Z,2
2014-07-14T01:35:23.635Z,2
2014-07-14T01:35:41.870Z,1
2014-07-14T01:36:00.104Z,2
2014-07-14T01:36:18.326Z,2
2014-07-14T01:36:36.560Z,2
2014-07-14T01:36:54.779Z,1
2014-07-14T01:37:12.390Z,1
2014-07-14T01:37:29.984Z,2
2014-07-14T01:37:48.219Z,2
2014-07-14T01:38:05.828Z,1
2014-07-14T01:38:24.049Z,2
2014-07-14T01:38:42.283Z,2
2014-07-14T01:39:00.517Z,2
2014-07-14T01:39:18.737Z,1
2014-07-14T01:39:35.722Z,2
2014-07-14T01:39:53.940Z,2
2014-07-14T01:40:11.550Z,2
2014-07-14T01:40:29.771Z,2
2014-07-14T01:40:46.740Z,1
2014-07-14T01:41:04.350Z,2
2014-07-14T01:41:22.568Z,2
2014-07-14T01:41:40.180Z,2
2014-07-14T01:41:58.414Z,2
2014-07-14T01:42:16.008Z,2
2014-07-14T01:42:34.244Z,2
2014-07-14T01:42:51.838Z,2
2014-07-14T01:43:10.072Z,2
2014-07-14T01:43:27.666Z,2
2014-07-14T01:43:45.902Z,2
2014-07-14T01:44:04.121Z,2
2014-07-14T01:44:22.356Z,2
2014-07-14T01:44:40.592Z,2
2014-07-14T01:44:58.811Z,2
2014-07-14T01:45:17.045Z,2
2014-07-14T01:45:35.281Z,2
2014-07-14T01:45:51.625Z,2
2014-07-14T01:46:09.844Z,2
2014-07-14T01:46:28.078Z,2
2014-07-14T01:46:45.674Z,2
2014-07-14T01:47:02.643Z,1
2014-07-14T01:47:20.877Z,2
2014-07-14T01:47:38.473Z,2
2014-07-14T01:47:56.082Z,2
2014-07-14T01:48:13.676Z,1
2014-07-14T01:48:31.910Z,2
2014-07-14T01:48:49.506Z,2
2014-07-14T01:49:07.100Z,2
2014-07-14T01:49:25.334Z,2
2014-07-14T01:49:42.928Z,2
2014-07-14T01:50:00.539Z,2
2014-07-14T01:50:17.508Z,2
2014-07-14T01:50:35.243Z,1
2014-07-14T01:50:53.604Z,2
2014-07-14T01:51:11.838Z,2
2014-07-14T01:51:29.432Z,2
2014-07-14T01:51:46.401Z,1
2014-07-14T01:52:04.637Z,2
2014-07-14T01:52:22.872Z,2
2014-07-14T01:52:40.606Z,1
2014-07-14T01:52:57.577Z,2
2014-07-14T01:53:15.170Z,2
2014-07-14T01:53:32.139Z,1
2014-07-14T01:53:50.374Z,2
2014-07-14T01:54:07.985Z,2
2014-07-14T01:54:26.204Z,1
2014-07-14T01:54:44.438Z,2
2014-07-14T01:55:02.659Z,1
2014-07-14T01:55:20.893Z,2
2014-07-14T01:55:38.628Z,2
2014-07-14T01:55:55.596Z,2
2014-07-14T01:56:13.193Z,2
2014-07-14T01:56:30.927Z,1
2014-07-14T01:56:48.537Z,2
2014-07-14T01:57:06.131Z,2
2014-07-14T01:57:24.366Z,2
2014-07-14T01:57:41.960Z,2
2014-07-14T01:58:00.194Z,1
2014-07-14T01:58:17.165Z,2
2014-07-14T01:58:34.915Z,2
2014-07-14T01:58:52.634Z,2
2014-07-14T01:59:10.868Z,2
2014-07-14T01:59:29.089Z,2
2014-07-14T01:59:47.323Z,2
2014-07-14T02:00:05.557Z,1
2014-07-14T02:00:23.153Z,2
2014-07-14T02:00:41.388Z,2
2014-07-14T02:00:58.997Z,2
2014-07-14T02:01:16.591Z,2
2014-07-14T02:01:34.811Z,2
2014-07-14T02:01:52.421Z,1
2014-07-14T02:02:10.640Z,2
2014-07-14T02:02:28.251Z,2
2014-07-14T02:02:46.485Z,1
2014-07-14T02:03:03.454Z,2
2014-07-14T02:03:21.188Z,2
2014-07-14T02:03:39.409Z,1
2014-07-14T02:03:56.394Z,2
2014-07-14T02:04:13.987Z,2
2014-07-14T02:04:32.349Z,2
2014-07-14T02:04:49.958Z,2
2014-07-14T02:05:08.192Z,2
2014-07-14T02:05:25.786Z,2
2014-07-14T02:05:44.023Z,2
2014-07-14T02:06:02.241Z,2
2014-07-14T02:06:20.476Z,2
2014-07-14T02:06:38.071Z,2
2014-07-14T02:06:55.040Z,2
2014-07-14T02:07:12.025Z,2
2014-07-14T02:07:28.493Z,2
2014-07-14T02:07:46.730Z,2
2014-07-14T02:08:04.339Z,2
2014-07-14T02:08:21.933Z,2
2014-07-14T02:08:39.542Z,2
2014-07-14T02:08:57.779Z,2
2014-07-14T02:09:15.997Z,1
2014-07-14T02:09:34.232Z,1
2014-07-14T02:09:51.827Z,2
2014-07-14T02:10:09.437Z,2
2014-07-14T02:10:27.031Z,2
2014-07-14T02:10:45.265Z,2
2014-07-14T02:11:02.861Z,2
2014-07-14T02:11:21.079Z,2
2014-07-14T02:11:39.314Z,1
2014-07-14T02:11:57.550Z,2
2014-07-14T02:12:15.144Z,2
2014-07-14T02:12:32.113Z,2
2014-07-14T02:12:50.472Z,2
2014-07-14T02:13:08.068Z,2
2014-07-14T02:13:25.677Z,2
2014-07-14T02:13:42.646Z,2
2014-07-14T02:14:00.882Z,2
2014-07-14T02:14:17.851Z,2
2014-07-14T02:14:35.460Z,2
2014-07-14T02:14:53.070Z,2
2014-07-14T02:15:10.041Z,2
2014-07-14T02:15:27.634Z,2
2014-07-14T02:15:45.869Z,2
2014-07-14T02:16:04.087Z,2
2014-07-14T02:16:21.700Z,2
2014-07-14T02:16:39.294Z,2
2014-07-14T02:16:56.887Z,2
2014-07-14T02:17:14.483Z,2
2014-07-14T02:17:32.702Z,2
2014-07-14T02:17:50.936Z,2
2014-07-14T02:18:08.671Z,2
2014-07-14T02:18:26.265Z,2
2014-07-14T02:18:44.625Z,2
2014-07-14T02:19:02.843Z,2
2014-07-14T02:19:20.455Z,2
2014-07-14T02:19:38.049Z,2
2014-07-14T02:19:56.267Z,2
2014-07-14T02:20:13.877Z,2
2014-07-14T02:20:32.238Z,2
2014-07-14T02:20:49.832Z,2
2014-07-14T02:21:07.426Z,2
2014-07-14T02:21:24.396Z,2
2014-07-14T02:21:42.006Z,2
2014-07-14T02:22:00.224Z,2
2014-07-14T02:22:17.834Z,2
2014-07-14T02:22:35.431Z,2
2014-07-14T02:22:52.415Z,2
2014-07-14T02:23:10.634Z,2
2014-07-14T02:23:28.868Z,2
2014-07-14T02:23:47.089Z,3
2014-07-14T02:24:05.323Z,2
2014-07-14T02:24:22.917Z,2
2014-07-14T02:24:39.888Z,2
2014-07-14T02:24:57.622Z,2
2014-07-14T02:25:15.356Z,3
2014-07-14T02:25:32.950Z,3
2014-07-14T02:25:50.062Z,3
2014-07-14T02:26:08.280Z,3
2014-07-14T02:26:25.890Z,2
2014-07-14T02:26:43.483Z,3
2014-07-14T02:27:01.704Z,3
2014-07-14T02:27:19.314Z,3
2014-07-14T02:27:37.548Z,3
2014-07-14T02:27:55.769Z,3
2014-07-14T02:28:13.378Z,3
2014-07-14T02:28:30.972Z,3
2014-07-14T02:28:48.566Z,3
2014-07-14T02:29:06.785Z,3
2014-07-14T02:29:24.395Z,3
2014-07-14T02:29:41.988Z,3
2014-07-14T02:30:00.210Z,3
2014-07-14T02:30:17.820Z,4
2014-07-14T02:30:35.413Z,4
2014-07-14T02:30:53.023Z,4
2014-07-14T02:31:09.993Z,4
2014-07-14T02:31:28.212Z,4
2014-07-14T02:31:46.447Z,4
2014-07-14T02:32:04.667Z,4
2014-07-14T02:32:22.902Z,4
2014-07-14T02:32:40.495Z,4
2014-07-14T02:32:58.107Z,4
2014-07-14T02:33:16.326Z,4
2014-07-14T02:33:33.935Z,4
2014-07-14T02:33:52.154Z,5
2014-07-14T02:34:09.765Z,4
2014-07-14T02:34:27.984Z,5
2014-07-14T02:34:46.218Z,5
2014-07-14T02:35:03.830Z,5
2014-07-14T02:35:21.423Z,5
2014-07-14T02:35:39.017Z,5
2014-07-14T02:35:56.001Z,5
2014-07-14T02:36:14.221Z,5
2014-07-14T02:36:32.456Z,6
2014-07-14T02:36:50.674Z,6
2014-07-14T02:37:08.287Z,6
2014-07-14T02:37:26.505Z,6
2014-07-14T02:37:44.115Z,6
2014-07-14T02:38:02.334Z,6
2014-07-14T02:38:19.304Z,6
2014-07-14T02:38:37.523Z,7
2014-07-14T02:38:55.132Z,6
2014-07-14T02:39:12.726Z,7
2014-07-14T02:39:30.963Z,7
2014-07-14T02:39:49.197Z,7
2014-07-14T02:40:07.416Z,7
2014-07-14T02:40:24.386Z,8
2014-07-14T02:40:42.621Z,8
2014-07-14T02:41:00.855Z,8
2014-07-14T02:41:18.449Z,8
2014-07-14T02:41:36.045Z,8
2014-07-14T02:41:53.654Z,8
2014-07-14T02:42:11.248Z,9
2014-07-14T02:42:29.484Z,10
2014-07-14T02:42:47.078Z,9
2014-07-14T02:43:05.312Z,9
2014-07-14T02:43:22.906Z,9
2014-07-14T02:43:40.642Z,9
2014-07-14T02:43:58.236Z,10
2014-07-14T02:44:15.846Z,10
2014-07-14T02:44:33.457Z,10
2014-07-14T02:44:51.676Z,10
2014-07-14T02:45:09.285Z,11
2014-07-14T02:45:26.879Z,11
2014-07-14T02:45:45.115Z,11
2014-07-14T02:46:02.084Z,11
2014-07-14T02:46:19.068Z,11
2014-07-14T02:46:36.664Z,12
2014-07-14T02:46:53.648Z,12
2014-07-14T02:47:10.617Z,12
2014-07-14T02:47:28.867Z,12
2014-07-14T02:47:47.088Z,13
2014-07-14T02:48:05.322Z,13
2014-07-14T02:48:22.916Z,13
2014-07-14T02:48:40.525Z,13
2014-07-14T02:48:58.121Z,13
2014-07-14T02:49:16.356Z,14
2014-07-14T02:49:34.590Z,14
2014-07-14T02:49:52.811Z,14
2014-07-14T02:50:10.420Z,14
2014-07-14T02:50:28.014Z,15
2014-07-14T02:50:46.248Z,15
2014-07-14T02:51:04.485Z,15
2014-07-14T02:51:22.078Z,15
2014-07-14T02:51:40.313Z,15
2014-07-14T02:51:58.549Z,16
2014-07-14T02:52:16.783Z,16
2014-07-14T02:52:34.377Z,16
2014-07-14T02:52:50.737Z,16
2014-07-14T02:53:08.973Z,17
2014-07-14T02:53:26.567Z,17
2014-07-14T02:53:44.801Z,17
2014-07-14T02:54:03.022Z,17
2014-07-14T02:54:21.256Z,18
2014-07-14T02:54:38.866Z,18
2014-07-14T02:54:57.102Z,18
2014-07-14T02:55:14.696Z,19
2014-07-14T02:55:31.055Z,19
2014-07-14T02:55:48.664Z,20
2014-07-14T02:56:06.885Z,20
2014-07-14T02:56:24.495Z,21
2014-07-14T02:56:42.713Z,21
2014-07-14T02:57:00.323Z,21
2014-07-14T02:57:17.918Z,22
2014-07-14T02:57:34.278Z,22
2014-07-14T02:57:52.512Z,23
2014-07-14T02:58:09.483Z,23
2014-07-14T02:58:27.717Z,24
2014-07-14T02:58:45.327Z,24
2014-07-14T02:59:03.545Z,25
2014-07-14T02:59:21.157Z,26
2014-07-14T02:59:39.391Z,26
2014-07-14T02:59:56.360Z,27
2014-07-14T03:00:14.096Z,27
2014-07-14T03:00:31.706Z,28
2014-07-14T03:00:49.299Z,28
2014-07-14T03:01:07.534Z,29
2014-07-14T03:01:25.130Z,29
2014-07-14T03:01:42.739Z,30
2014-07-14T03:02:00.973Z,30
2014-07-14T03:02:19.210Z,31
2014-07-14T03:02:37.444Z,31
2014-07-14T03:02:55.038Z,32
2014-07-14T03:03:13.259Z,32
2014-07-14T03:03:31.493Z,33
2014-07-14T03:03:49.727Z,34
2014-07-14T03:04:07.462Z,34
2014-07-14T03:04:25.698Z,35
2014-07-14T03:04:43.932Z,36
2014-07-14T03:05:01.526Z,36
2014-07-14T03:05:19.138Z,37
2014-07-14T03:05:36.731Z,38
2014-07-14T03:05:53.716Z,39
2014-07-14T03:06:11.934Z,39
2014-07-14T03:06:29.546Z,41
2014-07-14T03:06:47.140Z,41
2014-07-14T03:07:05.374Z,42
2014-07-14T03:07:22.983Z,43
2014-07-14T03:07:40.579Z,43
2014-07-14T03:07:58.188Z,44
2014-07-14T03:08:16.423Z,46
2014-07-14T03:08:34.644Z,47
2014-07-14T03:08:52.253Z,48
2014-07-14T03:09:10.612Z,48
2014-07-14T03:09:26.956Z,49
2014-07-14T03:09:44.567Z,51
2014-07-14T03:10:02.302Z,52
2014-07-14T03:10:20.661Z,53
2014-07-14T03:10:38.898Z,55
2014-07-14T03:10:57.257Z,56
2014-07-14T03:11:15.476Z,58
2014-07-14T03:11:33.085Z,59
2014-07-14T03:11:50.696Z,60
2014-07-14T03:12:08.915Z,62
2014-07-14T03:12:26.525Z,63
2014-07-14T03:12:44.743Z,65
2014-07-14T03:13:01.730Z,66
2014-07-14T03:13:19.948Z,68
2014-07-14T03:13:38.183Z,70
2014-07-14T03:13:56.419Z,71
2014-07-14T03:14:14.654Z,73
2014-07-14T03:14:32.247Z,75
2014-07-14T03:14:49.857Z,77
2014-07-14T03:15:07.452Z,78
2014-07-14T03:15:25.187Z,80
2014-07-14T03:15:41.546Z,81
2014-07-14T03:15:59.143Z,82
2014-07-14T03:16:17.377Z,84
2014-07-14T03:16:34.346Z,87
2014-07-14T03:16:51.330Z,87
2014-07-14T03:17:08.925Z,89
2014-07-14T03:17:27.160Z,92
2014-07-14T03:17:45.394Z,93
2014-07-14T03:18:02.363Z,95
2014-07-14T03:18:18.725Z,96
2014-07-14T03:18:36.334Z,97
2014-07-14T03:18:53.928Z,99
2014-07-14T03:19:11.524Z,100
2014-07-14T03:19:29.133Z,103
2014-07-14T03:19:46.102Z,105
2014-07-14T03:20:03.086Z,105
2014-07-14T03:20:20.072Z,106
2014-07-14T03:20:37.681Z,108
2014-07-14T03:20:55.900Z,109
2014-07-14T03:21:14.134Z,112
2014-07-14T03:21:32.372Z,115
2014-07-14T03:21:49.356Z,116
2014-07-14T03:22:07.590Z,117
2014-07-14T03:22:25.826Z,119
2014-07-14T03:22:42.810Z,121
2014-07-14T03:23:00.420Z,122
2014-07-14T03:23:18.638Z,125
2014-07-14T03:23:36.875Z,127
2014-07-14T03:23:55.109Z,128
2014-07-14T03:24:13.343Z,129
2014-07-14T03:24:31.580Z,133
2014-07-14T03:24:49.189Z,134
2014-07-14T03:25:06.174Z,135
2014-07-14T03:25:24.408Z,135
2014-07-14T03:25:42.645Z,137
2014-07-14T03:26:00.380Z,138
2014-07-14T03:26:17.973Z,140
2014-07-14T03:26:36.209Z,142
2014-07-14T03:26:53.818Z,143
2014-07-14T03:27:12.053Z,145
2014-07-14T03:27:30.290Z,147
2014-07-14T03:27:47.884Z,148
2014-07-14T03:28:06.118Z,150
2014-07-14T03:28:24.352Z,151
2014-07-14T03:28:41.963Z,153
2014-07-14T03:28:59.557Z,152
2014-07-14T03:29:17.791Z,154
2014-07-14T03:29:35.400Z,157
2014-07-14T03:29:52.372Z,157
2014-07-14T03:30:10.606Z,158
2014-07-14T03:30:28.841Z,159
2014-07-14T03:30:47.077Z,160
2014-07-14T03:31:04.687Z,161
2014-07-14T03:31:21.655Z,163
2014-07-14T03:31:39.265Z,164
2014-07-14T03:31:56.876Z,165
2014-07-14T03:32:15.126Z,166
2014-07-14T03:32:32.720Z,166
2014-07-14T03:32:49.706Z,168
2014-07-14T03:33:07.300Z,169
2014-07-14T03:33:25.534Z,169
2014-07-14T03:33:42.519Z,170
2014-07-14T03:34:00.755Z,169
2014-07-14T03:34:18.989Z,170
2014-07-14T03:34:36.599Z,172
2014-07-14T03:34:54.820Z,171
2014-07-14T03:35:12.429Z,172
2014-07-14T03:35:30.663Z,171
2014-07-14T03:35:48.898Z,170
2014-07-14T03:36:06.509Z,170
2014-07-14T03:36:24.118Z,172
2014-07-14T03:36:41.728Z,170
2014-07-14T03:36:59.962Z,169
2014-07-14T03:37:17.558Z,170
2014-07-14T03:37:35.792Z,169
2014-07-14T03:37:54.027Z,168
2014-07-14T03:38:11.638Z,169
2014-07-14T03:38:29.872Z,169
2014-07-14T03:38:47.482Z,167
2014-07-14T03:39:05.091Z,168
2014-07-14T03:39:23.328Z,167
2014-07-14T03:39:41.562Z,167
2014-07-14T03:39:59.796Z,167
2014-07-14T03:40:18.033Z,165
2014-07-14T03:40:35.626Z,165
2014-07-14T03:40:53.876Z,164
2014-07-14T03:41:12.096Z,163
2014-07-14T03:41:29.706Z,163
2014-07-14T03:41:47.315Z,163
2014-07-14T03:42:04.284Z,163
2014-07-14T03:42:21.896Z,162
2014-07-14T03:42:40.130Z,163
2014-07-14T03:42:57.740Z,165
2014-07-14T03:43:15.334Z,163
2014-07-14T03:43:32.945Z,165
2014-07-14T03:43:51.179Z,164
2014-07-14T03:44:08.789Z,166
2014-07-14T03:44:26.400Z,168
2014-07-14T03:44:44.634Z,169
2014-07-14T03:45:02.228Z,168
2014-07-14T03:45:20.463Z,173
2014-07-14T03:45:38.699Z,172
2014-07-14T03:45:56.933Z,174
2014-07-14T03:46:13.918Z,175
2014-07-14T03:46:31.529Z,178
2014-07-14T03:46:49.123Z,179
2014-07-14T03:47:07.357Z,180
2014-07-14T03:47:24.968Z,179
2014-07-14T03:47:42.577Z,183
2014-07-14T03:48:00.186Z,185
2014-07-14T03:48:18.421Z,186
2014-07-14T03:48:36.642Z,188
2014-07-14T03:48:54.877Z,194
2014-07-14T03:49:12.486Z,193
2014-07-14T03:49:28.830Z,198
2014-07-14T03:49:46.440Z,195
2014-07-14T03:50:04.675Z,198
2014-07-14T03:50:21.659Z,201
2014-07-14T03:50:39.896Z,199
2014-07-14T03:50:58.131Z,201
2014-07-14T03:51:16.490Z,205
2014-07-14T03:51:34.102Z,205
2014-07-14T03:51:51.711Z,206
2014-07-14T03:52:08.680Z,206
2014-07-14T03:52:25.664Z,211
2014-07-14T03:52:43.900Z,209
2014-07-14T03:53:00.869Z,211
2014-07-14T03:53:17.854Z,213
2014-07-14T03:53:36.088Z,214
2014-07-14T03:53:54.324Z,216
2014-07-14T03:54:11.918Z,217
2014-07-14T03:54:28.902Z,218
2014-07-14T03:54:45.888Z,222
2014-07-14T03:55:04.122Z,221
2014-07-14T03:55:21.732Z,226
2014-07-14T03:55:39.950Z,224
2014-07-14T03:55:57.563Z,225
2014-07-14T03:56:15.188Z,228
2014-07-14T03:56:32.781Z,230
2014-07-14T03:56:51.017Z,232
2014-07-14T03:57:09.251Z,232
2014-07-14T03:57:27.611Z,234
2014-07-14T03:57:45.223Z,238
2014-07-14T03:58:03.457Z,239
2014-07-14T03:58:21.692Z,238
2014-07-14T03:58:38.660Z,241
2014-07-14T03:58:56.272Z,241
2014-07-14T03:59:13.881Z,245
2014-07-14T03:59:30.866Z,245
2014-07-14T03:59:49.100Z,245
2014-07-14T04:00:06.710Z,249
2014-07-14T04:00:24.320Z,251
2014-07-14T04:00:42.054Z,252
2014-07-14T04:01:00.291Z,254
2014-07-14T04:01:18.526Z,258
2014-07-14T04:01:36.120Z,255
2014-07-14T04:01:53.104Z,256
2014-07-14T04:02:10.700Z,259
2014-07-14T04:02:27.684Z,262
2014-07-14T04:02:45.918Z,264
2014-07-14T04:03:04.154Z,260
2014-07-14T04:03:21.748Z,264
2014-07-14T04:03:39.357Z,263
2014-07-14T04:03:57.591Z,267
2014-07-14T04:04:15.829Z,269
2014-07-14T04:04:34.063Z,267
2014-07-14T04:04:51.672Z,271
2014-07-14T04:05:08.642Z,271
2014-07-14T04:05:26.252Z,271
2014-07-14T04:05:44.486Z,272
2014-07-14T04:06:02.080Z,277
2014-07-14T04:06:20.317Z,275
2014-07-14T04:06:37.926Z,276
2014-07-14T04:06:56.161Z,278
2014-07-14T04:07:13.772Z,280
2014-07-14T04:07:31.366Z,281
2014-07-14T04:07:49.600Z,286
2014-07-14T04:08:07.194Z,287
2014-07-14T04:08:24.804Z,288
2014-07-14T04:08:42.414Z,289
2014-07-14T04:09:00.648Z,290
2014-07-14T04:09:18.870Z,293
2014-07-14T04:09:36.479Z,295
2014-07-14T04:09:54.089Z,301
2014-07-14T04:10:11.698Z,297
2014-07-14T04:10:28.044Z,303
2014-07-14T04:10:45.028Z,302
2014-07-14T04:11:03.263Z,304
2014-07-14T04:11:20.873Z,307
2014-07-14T04:11:39.092Z,306
2014-07-14T04:11:56.076Z,307
2014-07-14T04:12:13.045Z,312
2014-07-14T04:12:30.657Z,311
2014-07-14T04:12:48.267Z,314
2014-07-14T04:13:05.860Z,314
2014-07-14T04:13:24.236Z,315
2014-07-14T04:13:41.205Z,318
2014-07-14T04:13:58.814Z,320
2014-07-14T04:14:15.783Z,318
2014-07-14T04:14:34.021Z,319
2014-07-14T04:14:51.630Z,320
2014-07-14T04:15:09.864Z,321
2014-07-14T04:15:27.476Z,322
2014-07-14T04:15:44.444Z,322
2014-07-14T04:16:02.054Z,322
2014-07-14T04:16:19.663Z,324
2014-07-14T04:16:37.900Z,325
2014-07-14T04:16:55.493Z,326
2014-07-14T04:17:13.728Z,328